sensor_id;sensor_type;location;lat;lon;timestamp;temperature;humidity
30764;DHT22;17497;51.476;7.770;2022-12-20T00:01:26;11.00;99.90
30764;DHT22;17497;51.476;7.770;2022-12-20T00:03:55;11.10;99.90
30764;DHT22;17497;51.476;7.770;2022-12-20T00:06:22;11.10;99.90
30764;DHT22;17497;51.476;7.770;2022-12-20T00:08:54;11.00;99.90
30764;DHT22;17497;51.476;7.770;2022-12-20T00:11:22;11.00;99.90
30764;DHT22;17497;51.476;7.770;2022-12-20T00:13:49;11.10;99.90
30764;DHT22;17497;51.476;7.770;2022-12-20T00:16:21;11.10;99.90
30764;DHT22;17497;51.476;7.770;2022-12-20T00:18:57;11.10;99.90
30764;DHT22;17497;51.476;7.770;2022-12-20T00:21:24;11.10;99.90
30764;DHT22;17497;51.476;7.770;2022-12-20T00:23:52;11.10;99.90
30764;DHT22;17497;51.476;7.770;2022-12-20T00:26:22;11.00;99.90
30764;DHT22;17497;51.476;7.770;2022-12-20T00:28:51;11.00;99.90
30764;DHT22;17497;51.476;7.770;2022-12-20T00:31:20;10.90;99.90
30764;DHT22;17497;51.476;7.770;2022-12-20T00:33:50;10.90;99.90
30764;DHT22;17497;51.476;7.770;2022-12-20T00:36:18;10.90;99.90
30764;DHT22;17497;51.476;7.770;2022-12-20T00:38:50;11.00;99.90
30764;DHT22;17497;51.476;7.770;2022-12-20T00:41:23;11.00;99.90
30764;DHT22;17497;51.476;7.770;2022-12-20T00:43:50;11.00;99.90
30764;DHT22;17497;51.476;7.770;2022-12-20T00:46:18;11.10;99.90
30764;DHT22;17497;51.476;7.770;2022-12-20T00:48:46;11.10;99.90
30764;DHT22;17497;51.476;7.770;2022-12-20T00:51:15;11.00;99.90
30764;DHT22;17497;51.476;7.770;2022-12-20T00:53:43;11.00;99.90
30764;DHT22;17497;51.476;7.770;2022-12-20T00:56:10;11.10;99.90
30764;DHT22;17497;51.476;7.770;2022-12-20T00:58:39;11.10;99.90
30764;DHT22;17497;51.476;7.770;2022-12-20T01:01:33;11.10;99.90
30764;DHT22;17497;51.476;7.770;2022-12-20T01:04:03;11.20;99.90
30764;DHT22;17497;51.476;7.770;2022-12-20T01:06:30;11.10;99.90
30764;DHT22;17497;51.476;7.770;2022-12-20T01:08:57;11.20;99.90
30764;DHT22;17497;51.476;7.770;2022-12-20T01:11:27;11.20;99.90
30764;DHT22;17497;51.476;7.770;2022-12-20T01:13:55;11.30;99.90
30764;DHT22;17497;51.476;7.770;2022-12-20T01:16:36;11.20;99.90
30764;DHT22;17497;51.476;7.770;2022-12-20T01:19:04;11.30;99.90
30764;DHT22;17497;51.476;7.770;2022-12-20T01:21:32;11.30;99.90
30764;DHT22;17497;51.476;7.770;2022-12-20T01:23:59;11.30;99.90
30764;DHT22;17497;51.476;7.770;2022-12-20T01:26:27;11.30;99.90
30764;DHT22;17497;51.476;7.770;2022-12-20T01:28:57;11.40;99.90
30764;DHT22;17497;51.476;7.770;2022-12-20T01:31:24;11.40;99.90
30764;DHT22;17497;51.476;7.770;2022-12-20T01:33:51;11.40;99.90
30764;DHT22;17497;51.476;7.770;2022-12-20T01:36:23;11.50;99.90
30764;DHT22;17497;51.476;7.770;2022-12-20T01:38:55;11.50;99.90
30764;DHT22;17497;51.476;7.770;2022-12-20T01:41:22;11.50;99.90
30764;DHT22;17497;51.476;7.770;2022-12-20T01:43:59;11.50;99.90
30764;DHT22;17497;51.476;7.770;2022-12-20T01:46:28;11.50;99.90
30764;DHT22;17497;51.476;7.770;2022-12-20T01:51:30;11.50;99.90
30764;DHT22;17497;51.476;7.770;2022-12-20T01:54:04;11.60;99.90
30764;DHT22;17497;51.476;7.770;2022-12-20T01:56:32;11.60;99.90
30764;DHT22;17497;51.476;7.770;2022-12-20T01:58:59;11.50;99.90
30764;DHT22;17497;51.476;7.770;2022-12-20T02:01:27;11.50;99.90
30764;DHT22;17497;51.476;7.770;2022-12-20T02:03:54;11.50;99.90
30764;DHT22;17497;51.476;7.770;2022-12-20T02:06:23;11.50;99.90
30764;DHT22;17497;51.476;7.770;2022-12-20T02:08:53;11.40;99.90
30764;DHT22;17497;51.476;7.770;2022-12-20T02:16:50;11.40;99.90
30764;DHT22;17497;51.476;7.770;2022-12-20T02:25:37;11.30;99.90
30764;DHT22;17497;51.476;7.770;2022-12-20T02:30:46;11.30;99.90
30764;DHT22;17497;51.476;7.770;2022-12-20T02:33:16;11.30;99.90
30764;DHT22;17497;51.476;7.770;2022-12-20T02:35:44;11.30;99.90
30764;DHT22;17497;51.476;7.770;2022-12-20T02:38:32;11.30;99.90
30764;DHT22;17497;51.476;7.770;2022-12-20T02:41:11;11.20;99.90
30764;DHT22;17497;51.476;7.770;2022-12-20T02:46:08;11.20;99.90
30764;DHT22;17497;51.476;7.770;2022-12-20T02:48:37;11.10;99.90
30764;DHT22;17497;51.476;7.770;2022-12-20T02:51:05;11.10;99.90
30764;DHT22;17497;51.476;7.770;2022-12-20T02:53:33;11.00;99.90
30764;DHT22;17497;51.476;7.770;2022-12-20T02:58:52;11.00;99.90
30764;DHT22;17497;51.476;7.770;2022-12-20T03:01:34;11.00;99.90
30764;DHT22;17497;51.476;7.770;2022-12-20T03:04:03;11.00;99.90
30764;DHT22;17497;51.476;7.770;2022-12-20T03:06:31;10.90;99.90
30764;DHT22;17497;51.476;7.770;2022-12-20T03:08:58;10.90;99.90
30764;DHT22;17497;51.476;7.770;2022-12-20T03:11:25;10.90;99.90
30764;DHT22;17497;51.476;7.770;2022-12-20T03:13:51;10.90;99.90
30764;DHT22;17497;51.476;7.770;2022-12-20T03:16:18;10.90;99.90
30764;DHT22;17497;51.476;7.770;2022-12-20T03:18:47;10.90;99.90
30764;DHT22;17497;51.476;7.770;2022-12-20T03:21:14;10.90;99.90
30764;DHT22;17497;51.476;7.770;2022-12-20T03:23:40;10.90;99.90
30764;DHT22;17497;51.476;7.770;2022-12-20T03:26:07;10.80;99.90
30764;DHT22;17497;51.476;7.770;2022-12-20T03:28:34;10.80;99.90
30764;DHT22;17497;51.476;7.770;2022-12-20T03:31:00;10.80;99.90
30764;DHT22;17497;51.476;7.770;2022-12-20T03:33:27;10.80;99.90
30764;DHT22;17497;51.476;7.770;2022-12-20T03:35:54;10.80;99.90
30764;DHT22;17497;51.476;7.770;2022-12-20T03:38:20;10.80;99.90
30764;DHT22;17497;51.476;7.770;2022-12-20T03:40:47;10.80;99.90
30764;DHT22;17497;51.476;7.770;2022-12-20T03:43:14;10.90;99.90
30764;DHT22;17497;51.476;7.770;2022-12-20T03:45:40;10.90;99.90
30764;DHT22;17497;51.476;7.770;2022-12-20T03:48:16;10.90;99.90
30764;DHT22;17497;51.476;7.770;2022-12-20T03:51:13;10.90;99.90
30764;DHT22;17497;51.476;7.770;2022-12-20T03:53:39;10.80;99.90
30764;DHT22;17497;51.476;7.770;2022-12-20T03:56:06;10.80;99.90
30764;DHT22;17497;51.476;7.770;2022-12-20T03:58:33;10.70;99.90
30764;DHT22;17497;51.476;7.770;2022-12-20T04:00:59;10.70;99.90
30764;DHT22;17497;51.476;7.770;2022-12-20T04:03:26;10.70;99.90
30764;DHT22;17497;51.476;7.770;2022-12-20T04:05:53;10.70;99.90
30764;DHT22;17497;51.476;7.770;2022-12-20T04:08:20;10.80;99.90
30764;DHT22;17497;51.476;7.770;2022-12-20T04:10:46;10.90;99.90
30764;DHT22;17497;51.476;7.770;2022-12-20T04:13:31;10.90;99.90
30764;DHT22;17497;51.476;7.770;2022-12-20T04:15:58;10.90;99.90
30764;DHT22;17497;51.476;7.770;2022-12-20T04:18:26;10.90;99.90
30764;DHT22;17497;51.476;7.770;2022-12-20T04:20:53;10.90;99.90
30764;DHT22;17497;51.476;7.770;2022-12-20T04:23:20;11.00;99.90
30764;DHT22;17497;51.476;7.770;2022-12-20T04:25:47;11.00;99.90
30764;DHT22;17497;51.476;7.770;2022-12-20T04:28:13;11.00;99.90
30764;DHT22;17497;51.476;7.770;2022-12-20T04:30:40;10.90;99.90
30764;DHT22;17497;51.476;7.770;2022-12-20T04:33:07;11.00;99.90
30764;DHT22;17497;51.476;7.770;2022-12-20T04:35:33;10.90;99.90
30764;DHT22;17497;51.476;7.770;2022-12-20T04:38:00;10.90;99.90
30764;DHT22;17497;51.476;7.770;2022-12-20T04:40:27;10.80;99.90
30764;DHT22;17497;51.476;7.770;2022-12-20T04:42:53;10.80;99.90
30764;DHT22;17497;51.476;7.770;2022-12-20T04:45:20;10.70;99.90
30764;DHT22;17497;51.476;7.770;2022-12-20T04:47:46;10.50;99.90
30764;DHT22;17497;51.476;7.770;2022-12-20T04:50:13;10.40;99.90
30764;DHT22;17497;51.476;7.770;2022-12-20T04:52:40;10.40;99.90
30764;DHT22;17497;51.476;7.770;2022-12-20T04:55:25;10.30;99.90
30764;DHT22;17497;51.476;7.770;2022-12-20T04:57:52;10.30;99.90
30764;DHT22;17497;51.476;7.770;2022-12-20T05:00:19;10.20;99.90
30764;DHT22;17497;51.476;7.770;2022-12-20T05:02:46;10.20;99.90
30764;DHT22;17497;51.476;7.770;2022-12-20T05:05:13;10.10;99.90
30764;DHT22;17497;51.476;7.770;2022-12-20T05:07:40;10.10;99.90
30764;DHT22;17497;51.476;7.770;2022-12-20T05:10:07;10.10;99.90
30764;DHT22;17497;51.476;7.770;2022-12-20T05:12:34;10.00;99.90
30764;DHT22;17497;51.476;7.770;2022-12-20T05:15:00;10.00;99.90
30764;DHT22;17497;51.476;7.770;2022-12-20T05:17:27;9.90;99.90
30764;DHT22;17497;51.476;7.770;2022-12-20T05:19:54;9.90;99.90
30764;DHT22;17497;51.476;7.770;2022-12-20T05:22:20;9.90;99.90
30764;DHT22;17497;51.476;7.770;2022-12-20T05:25:07;9.90;99.90
30764;DHT22;17497;51.476;7.770;2022-12-20T05:27:57;9.80;99.90
30764;DHT22;17497;51.476;7.770;2022-12-20T05:30:24;9.70;99.90
30764;DHT22;17497;51.476;7.770;2022-12-20T05:32:52;9.60;99.90
30764;DHT22;17497;51.476;7.770;2022-12-20T05:35:19;9.60;99.90
30764;DHT22;17497;51.476;7.770;2022-12-20T05:37:46;9.60;99.90
30764;DHT22;17497;51.476;7.770;2022-12-20T05:40:12;9.60;99.90
30764;DHT22;17497;51.476;7.770;2022-12-20T05:42:39;9.60;99.90
30764;DHT22;17497;51.476;7.770;2022-12-20T05:45:06;9.60;99.90
30764;DHT22;17497;51.476;7.770;2022-12-20T05:47:33;9.70;99.90
30764;DHT22;17497;51.476;7.770;2022-12-20T05:50:00;9.70;99.90
30764;DHT22;17497;51.476;7.770;2022-12-20T05:52:27;9.70;99.90
30764;DHT22;17497;51.476;7.770;2022-12-20T05:54:54;9.70;99.90
30764;DHT22;17497;51.476;7.770;2022-12-20T05:57:20;9.70;99.90
30764;DHT22;17497;51.476;7.770;2022-12-20T05:59:47;9.70;99.90
30764;DHT22;17497;51.476;7.770;2022-12-20T06:02:14;9.70;99.90
30764;DHT22;17497;51.476;7.770;2022-12-20T06:04:41;9.80;99.90
30764;DHT22;17497;51.476;7.770;2022-12-20T06:07:07;9.80;99.90
30764;DHT22;17497;51.476;7.770;2022-12-20T06:09:34;9.90;99.90
30764;DHT22;17497;51.476;7.770;2022-12-20T06:12:01;9.90;99.90
30764;DHT22;17497;51.476;7.770;2022-12-20T06:14:28;9.90;99.90
30764;DHT22;17497;51.476;7.770;2022-12-20T06:16:54;10.10;99.90
30764;DHT22;17497;51.476;7.770;2022-12-20T06:19:21;10.10;99.90
30764;DHT22;17497;51.476;7.770;2022-12-20T06:21:48;10.10;99.90
30764;DHT22;17497;51.476;7.770;2022-12-20T06:24:14;10.10;99.90
30764;DHT22;17497;51.476;7.770;2022-12-20T06:26:41;10.10;99.90
30764;DHT22;17497;51.476;7.770;2022-12-20T06:29:08;10.00;99.90
30764;DHT22;17497;51.476;7.770;2022-12-20T06:31:39;10.10;99.90
30764;DHT22;17497;51.476;7.770;2022-12-20T06:34:06;10.00;99.90
30764;DHT22;17497;51.476;7.770;2022-12-20T06:36:33;10.10;99.90
30764;DHT22;17497;51.476;7.770;2022-12-20T06:39:00;10.10;99.90
30764;DHT22;17497;51.476;7.770;2022-12-20T06:41:35;10.10;99.90
30764;DHT22;17497;51.476;7.770;2022-12-20T06:44:02;10.10;99.90
30764;DHT22;17497;51.476;7.770;2022-12-20T06:46:29;10.10;99.90
30764;DHT22;17497;51.476;7.770;2022-12-20T06:48:56;10.10;99.90
30764;DHT22;17497;51.476;7.770;2022-12-20T06:51:23;10.10;99.90
30764;DHT22;17497;51.476;7.770;2022-12-20T06:53:50;10.20;99.90
30764;DHT22;17497;51.476;7.770;2022-12-20T06:56:17;10.20;99.90
30764;DHT22;17497;51.476;7.770;2022-12-20T06:58:44;10.20;99.90
30764;DHT22;17497;51.476;7.770;2022-12-20T07:01:19;10.30;99.90
30764;DHT22;17497;51.476;7.770;2022-12-20T07:04:00;10.20;99.90
30764;DHT22;17497;51.476;7.770;2022-12-20T07:06:26;10.20;99.90
30764;DHT22;17497;51.476;7.770;2022-12-20T07:08:54;10.30;99.90
30764;DHT22;17497;51.476;7.770;2022-12-20T07:11:21;10.30;99.90
30764;DHT22;17497;51.476;7.770;2022-12-20T07:13:48;10.30;99.90
30764;DHT22;17497;51.476;7.770;2022-12-20T07:16:15;10.40;99.90
30764;DHT22;17497;51.476;7.770;2022-12-20T07:18:42;10.40;99.90
30764;DHT22;17497;51.476;7.770;2022-12-20T07:21:09;10.40;99.90
30764;DHT22;17497;51.476;7.770;2022-12-20T07:23:36;10.50;99.90
30764;DHT22;17497;51.476;7.770;2022-12-20T07:26:03;10.50;99.90
30764;DHT22;17497;51.476;7.770;2022-12-20T07:28:30;10.50;99.90
30764;DHT22;17497;51.476;7.770;2022-12-20T07:31:00;10.50;99.90
30764;DHT22;17497;51.476;7.770;2022-12-20T07:33:27;10.50;99.90
30764;DHT22;17497;51.476;7.770;2022-12-20T07:36:20;10.60;99.90
30764;DHT22;17497;51.476;7.770;2022-12-20T07:38:47;10.60;99.90
30764;DHT22;17497;51.476;7.770;2022-12-20T07:41:16;10.50;99.90
30764;DHT22;17497;51.476;7.770;2022-12-20T07:43:44;10.50;99.90
30764;DHT22;17497;51.476;7.770;2022-12-20T07:46:14;10.50;99.90
30764;DHT22;17497;51.476;7.770;2022-12-20T07:48:42;10.50;99.90
30764;DHT22;17497;51.476;7.770;2022-12-20T07:51:13;10.50;99.90
30764;DHT22;17497;51.476;7.770;2022-12-20T07:53:46;10.50;99.90
30764;DHT22;17497;51.476;7.770;2022-12-20T07:56:14;10.50;99.90
30764;DHT22;17497;51.476;7.770;2022-12-20T07:58:42;10.50;99.90
30764;DHT22;17497;51.476;7.770;2022-12-20T08:01:09;10.40;99.90
30764;DHT22;17497;51.476;7.770;2022-12-20T08:03:49;10.40;99.90
30764;DHT22;17497;51.476;7.770;2022-12-20T08:06:18;10.40;99.90
30764;DHT22;17497;51.476;7.770;2022-12-20T08:08:48;10.40;99.90
30764;DHT22;17497;51.476;7.770;2022-12-20T08:11:17;10.40;99.90
30764;DHT22;17497;51.476;7.770;2022-12-20T08:13:45;10.50;99.90
30764;DHT22;17497;51.476;7.770;2022-12-20T08:16:17;10.50;99.90
30764;DHT22;17497;51.476;7.770;2022-12-20T08:18:43;10.50;99.90
30764;DHT22;17497;51.476;7.770;2022-12-20T08:21:10;10.50;99.90
30764;DHT22;17497;51.476;7.770;2022-12-20T08:23:38;10.50;99.90
30764;DHT22;17497;51.476;7.770;2022-12-20T08:26:13;10.50;99.90
30764;DHT22;17497;51.476;7.770;2022-12-20T08:28:40;10.60;99.90
30764;DHT22;17497;51.476;7.770;2022-12-20T08:31:08;10.50;99.90
30764;DHT22;17497;51.476;7.770;2022-12-20T08:33:36;10.70;99.90
30764;DHT22;17497;51.476;7.770;2022-12-20T08:36:07;10.70;99.90
30764;DHT22;17497;51.476;7.770;2022-12-20T08:38:37;10.90;99.90
30764;DHT22;17497;51.476;7.770;2022-12-20T08:41:06;10.80;99.90
30764;DHT22;17497;51.476;7.770;2022-12-20T08:43:33;10.80;99.90
30764;DHT22;17497;51.476;7.770;2022-12-20T08:46:00;10.70;99.90
30764;DHT22;17497;51.476;7.770;2022-12-20T08:48:27;10.70;99.90
30764;DHT22;17497;51.476;7.770;2022-12-20T08:50:56;10.70;99.90
30764;DHT22;17497;51.476;7.770;2022-12-20T08:53:23;10.80;99.90
30764;DHT22;17497;51.476;7.770;2022-12-20T08:56:09;10.80;99.90
30764;DHT22;17497;51.476;7.770;2022-12-20T08:58:47;10.80;99.90
30764;DHT22;17497;51.476;7.770;2022-12-20T09:01:16;11.10;99.90
30764;DHT22;17497;51.476;7.770;2022-12-20T09:03:44;11.30;99.90
30764;DHT22;17497;51.476;7.770;2022-12-20T09:06:15;11.30;99.90
30764;DHT22;17497;51.476;7.770;2022-12-20T09:08:43;11.40;99.90
30764;DHT22;17497;51.476;7.770;2022-12-20T09:11:12;11.40;99.90
30764;DHT22;17497;51.476;7.770;2022-12-20T09:13:40;11.40;99.90
30764;DHT22;17497;51.476;7.770;2022-12-20T09:16:12;11.50;99.90
30764;DHT22;17497;51.476;7.770;2022-12-20T09:18:39;11.60;99.90
30764;DHT22;17497;51.476;7.770;2022-12-20T09:21:07;11.60;99.90
30764;DHT22;17497;51.476;7.770;2022-12-20T09:23:35;11.60;99.90
30764;DHT22;17497;51.476;7.770;2022-12-20T09:26:05;11.50;99.90
30764;DHT22;17497;51.476;7.770;2022-12-20T09:28:35;11.50;99.90
30764;DHT22;17497;51.476;7.770;2022-12-20T09:31:03;11.50;99.90
30764;DHT22;17497;51.476;7.770;2022-12-20T09:33:31;11.50;99.90
30764;DHT22;17497;51.476;7.770;2022-12-20T09:35:59;11.40;99.90
30764;DHT22;17497;51.476;7.770;2022-12-20T09:38:26;11.50;99.90
30764;DHT22;17497;51.476;7.770;2022-12-20T09:40:55;11.50;99.90
30764;DHT22;17497;51.476;7.770;2022-12-20T09:43:23;11.50;99.90
30764;DHT22;17497;51.476;7.770;2022-12-20T09:45:52;11.50;99.90
30764;DHT22;17497;51.476;7.770;2022-12-20T09:48:25;11.50;99.90
30764;DHT22;17497;51.476;7.770;2022-12-20T09:59:09;11.70;99.90
30764;DHT22;17497;51.476;7.770;2022-12-20T10:01:37;11.70;99.90
30764;DHT22;17497;51.476;7.770;2022-12-20T10:13:06;11.80;99.90
30764;DHT22;17497;51.476;7.770;2022-12-20T10:15:48;11.90;99.90
30764;DHT22;17497;51.476;7.770;2022-12-20T10:21:25;12.00;99.90
30764;DHT22;17497;51.476;7.770;2022-12-20T10:24:01;12.10;99.90
30764;DHT22;17497;51.476;7.770;2022-12-20T10:26:30;12.00;99.90
30764;DHT22;17497;51.476;7.770;2022-12-20T10:28:57;12.00;99.90
30764;DHT22;17497;51.476;7.770;2022-12-20T10:31:25;12.00;99.90
30764;DHT22;17497;51.476;7.770;2022-12-20T10:33:52;12.10;99.90
30764;DHT22;17497;51.476;7.770;2022-12-20T10:36:31;12.40;99.90
30764;DHT22;17497;51.476;7.770;2022-12-20T10:39:06;12.70;99.90
30764;DHT22;17497;51.476;7.770;2022-12-20T10:44:28;13.10;99.90
30764;DHT22;17497;51.476;7.770;2022-12-20T10:46:57;13.00;99.90
30764;DHT22;17497;51.476;7.770;2022-12-20T10:49:38;13.00;99.90
30764;DHT22;17497;51.476;7.770;2022-12-20T10:52:10;12.90;99.90
30764;DHT22;17497;51.476;7.770;2022-12-20T10:54:40;12.80;99.90
30764;DHT22;17497;51.476;7.770;2022-12-20T10:57:25;12.80;99.90
30764;DHT22;17497;51.476;7.770;2022-12-20T10:59:58;12.80;99.90
30764;DHT22;17497;51.476;7.770;2022-12-20T11:02:37;12.70;99.90
30764;DHT22;17497;51.476;7.770;2022-12-20T11:07:52;12.80;99.90
30764;DHT22;17497;51.476;7.770;2022-12-20T11:10:39;12.90;99.90
30764;DHT22;17497;51.476;7.770;2022-12-20T11:13:10;12.90;99.90
30764;DHT22;17497;51.476;7.770;2022-12-20T11:15:48;12.90;99.90
30764;DHT22;17497;51.476;7.770;2022-12-20T11:21:47;12.90;99.90
30764;DHT22;17497;51.476;7.770;2022-12-20T11:27:15;13.00;99.90
30764;DHT22;17497;51.476;7.770;2022-12-20T11:33:14;13.10;99.90
30764;DHT22;17497;51.476;7.770;2022-12-20T11:36:03;13.20;99.90
30764;DHT22;17497;51.476;7.770;2022-12-20T11:38:40;13.30;99.90
30764;DHT22;17497;51.476;7.770;2022-12-20T11:41:31;13.20;99.90
30764;DHT22;17497;51.476;7.770;2022-12-20T11:44:23;13.20;99.90
30764;DHT22;17497;51.476;7.770;2022-12-20T11:53:01;12.90;99.90
30764;DHT22;17497;51.476;7.770;2022-12-20T11:55:25;12.90;99.90
30764;DHT22;17497;51.476;7.770;2022-12-20T12:01:09;12.80;99.90
30764;DHT22;17497;51.476;7.770;2022-12-20T12:03:42;12.80;99.90
30764;DHT22;17497;51.476;7.770;2022-12-20T12:06:29;12.80;99.90
30764;DHT22;17497;51.476;7.770;2022-12-20T12:09:05;12.80;99.90
30764;DHT22;17497;51.476;7.770;2022-12-20T12:12:07;12.80;99.90
30764;DHT22;17497;51.476;7.770;2022-12-20T12:14:59;12.80;99.90
30764;DHT22;17497;51.476;7.770;2022-12-20T12:20:39;12.90;99.90
30764;DHT22;17497;51.476;7.770;2022-12-20T12:23:21;12.80;99.90
30764;DHT22;17497;51.476;7.770;2022-12-20T12:25:49;12.70;99.90
30764;DHT22;17497;51.476;7.770;2022-12-20T12:28:18;12.70;99.90
30764;DHT22;17497;51.476;7.770;2022-12-20T12:30:55;12.70;99.90
30764;DHT22;17497;51.476;7.770;2022-12-20T12:33:25;12.60;99.90
30764;DHT22;17497;51.476;7.770;2022-12-20T12:39:11;12.50;99.90
30764;DHT22;17497;51.476;7.770;2022-12-20T12:42:06;12.40;99.90
30764;DHT22;17497;51.476;7.770;2022-12-20T12:44:48;12.40;99.90
30764;DHT22;17497;51.476;7.770;2022-12-20T12:50:06;12.40;99.90
30764;DHT22;17497;51.476;7.770;2022-12-20T12:52:48;12.40;99.90
30764;DHT22;17497;51.476;7.770;2022-12-20T12:55:39;12.40;99.90
30764;DHT22;17497;51.476;7.770;2022-12-20T13:01:25;12.30;99.90
30764;DHT22;17497;51.476;7.770;2022-12-20T13:11:39;12.20;99.90
30764;DHT22;17497;51.476;7.770;2022-12-20T13:16:51;12.10;99.90
30764;DHT22;17497;51.476;7.770;2022-12-20T13:19:40;12.10;99.90
30764;DHT22;17497;51.476;7.770;2022-12-20T13:22:22;12.00;99.90
30764;DHT22;17497;51.476;7.770;2022-12-20T13:24:58;12.00;99.90
30764;DHT22;17497;51.476;7.770;2022-12-20T13:40:47;11.90;99.90
30764;DHT22;17497;51.476;7.770;2022-12-20T13:45:50;11.80;99.90
30764;DHT22;17497;51.476;7.770;2022-12-20T13:48:24;11.80;99.90
30764;DHT22;17497;51.476;7.770;2022-12-20T13:50:54;11.80;99.90
30764;DHT22;17497;51.476;7.770;2022-12-20T13:53:26;11.80;99.90
30764;DHT22;17497;51.476;7.770;2022-12-20T13:55:53;11.70;99.90
30764;DHT22;17497;51.476;7.770;2022-12-20T13:58:24;11.70;99.90
30764;DHT22;17497;51.476;7.770;2022-12-20T14:00:52;11.60;99.90
30764;DHT22;17497;51.476;7.770;2022-12-20T14:05:46;11.60;99.90
30764;DHT22;17497;51.476;7.770;2022-12-20T14:08:20;11.40;99.90
30764;DHT22;17497;51.476;7.770;2022-12-20T14:10:51;11.40;99.90
30764;DHT22;17497;51.476;7.770;2022-12-20T14:13:26;11.30;99.90
30764;DHT22;17497;51.476;7.770;2022-12-20T14:15:53;11.30;99.90
30764;DHT22;17497;51.476;7.770;2022-12-20T14:18:23;11.30;99.90
30764;DHT22;17497;51.476;7.770;2022-12-20T14:20:55;11.30;99.90
30764;DHT22;17497;51.476;7.770;2022-12-20T14:23:35;11.40;99.90
30764;DHT22;17497;51.476;7.770;2022-12-20T14:26:02;11.50;99.90
30764;DHT22;17497;51.476;7.770;2022-12-20T14:28:41;11.50;99.90
30764;DHT22;17497;51.476;7.770;2022-12-20T14:31:29;11.60;99.90
30764;DHT22;17497;51.476;7.770;2022-12-20T14:36:46;11.60;99.90
30764;DHT22;17497;51.476;7.770;2022-12-20T14:39:21;11.70;99.90
30764;DHT22;17497;51.476;7.770;2022-12-20T14:42:15;11.70;99.90
30764;DHT22;17497;51.476;7.770;2022-12-20T14:44:41;11.60;99.90
30764;DHT22;17497;51.476;7.770;2022-12-20T14:47:26;11.60;99.90
30764;DHT22;17497;51.476;7.770;2022-12-20T14:50:02;11.60;99.90
30764;DHT22;17497;51.476;7.770;2022-12-20T14:54:58;11.60;99.90
30764;DHT22;17497;51.476;7.770;2022-12-20T15:13:19;10.80;99.90
30764;DHT22;17497;51.476;7.770;2022-12-20T15:15:47;10.60;99.90
30764;DHT22;17497;51.476;7.770;2022-12-20T15:18:16;10.50;99.90
30764;DHT22;17497;51.476;7.770;2022-12-20T15:20:49;10.40;99.90
30764;DHT22;17497;51.476;7.770;2022-12-20T15:23:19;10.40;99.90
30764;DHT22;17497;51.476;7.770;2022-12-20T15:25:47;10.40;99.90
30764;DHT22;17497;51.476;7.770;2022-12-20T15:28:17;10.30;99.90
30764;DHT22;17497;51.476;7.770;2022-12-20T15:30:45;10.20;99.90
30764;DHT22;17497;51.476;7.770;2022-12-20T15:33:23;10.10;99.90
30764;DHT22;17497;51.476;7.770;2022-12-20T15:35:51;10.10;99.90
30764;DHT22;17497;51.476;7.770;2022-12-20T15:38:23;10.00;99.90
30764;DHT22;17497;51.476;7.770;2022-12-20T15:43:54;10.00;99.90
30764;DHT22;17497;51.476;7.770;2022-12-20T15:46:22;10.00;99.90
30764;DHT22;17497;51.476;7.770;2022-12-20T15:48:49;10.00;99.90
30764;DHT22;17497;51.476;7.770;2022-12-20T15:51:36;9.90;99.90
30764;DHT22;17497;51.476;7.770;2022-12-20T15:54:06;9.90;99.90
30764;DHT22;17497;51.476;7.770;2022-12-20T15:56:33;9.90;99.90
30764;DHT22;17497;51.476;7.770;2022-12-20T15:58:59;9.90;99.90
30764;DHT22;17497;51.476;7.770;2022-12-20T16:01:47;9.90;99.90
30764;DHT22;17497;51.476;7.770;2022-12-20T16:04:17;10.00;99.90
30764;DHT22;17497;51.476;7.770;2022-12-20T16:06:46;9.90;99.90
30764;DHT22;17497;51.476;7.770;2022-12-20T16:09:13;9.90;99.90
30764;DHT22;17497;51.476;7.770;2022-12-20T16:11:41;10.00;99.90
30764;DHT22;17497;51.476;7.770;2022-12-20T16:14:20;10.00;99.90
30764;DHT22;17497;51.476;7.770;2022-12-20T16:16:47;10.00;99.90
30764;DHT22;17497;51.476;7.770;2022-12-20T16:19:16;10.00;99.90
30764;DHT22;17497;51.476;7.770;2022-12-20T16:21:48;10.00;99.90
30764;DHT22;17497;51.476;7.770;2022-12-20T16:24:18;10.00;99.90
30764;DHT22;17497;51.476;7.770;2022-12-20T16:26:45;10.00;99.90
30764;DHT22;17497;51.476;7.770;2022-12-20T16:29:11;10.10;99.90
30764;DHT22;17497;51.476;7.770;2022-12-20T16:31:39;10.10;99.90
30764;DHT22;17497;51.476;7.770;2022-12-20T16:34:15;10.10;99.90
30764;DHT22;17497;51.476;7.770;2022-12-20T16:36:43;10.20;99.90
30764;DHT22;17497;51.476;7.770;2022-12-20T16:39:10;10.20;99.90
30764;DHT22;17497;51.476;7.770;2022-12-20T16:41:39;10.20;99.90
30764;DHT22;17497;51.476;7.770;2022-12-20T16:44:14;10.20;99.90
30764;DHT22;17497;51.476;7.770;2022-12-20T16:46:42;10.20;99.90
30764;DHT22;17497;51.476;7.770;2022-12-20T16:49:10;10.20;99.90
30764;DHT22;17497;51.476;7.770;2022-12-20T16:51:46;10.20;99.90
30764;DHT22;17497;51.476;7.770;2022-12-20T16:54:20;10.20;99.90
30764;DHT22;17497;51.476;7.770;2022-12-20T16:56:50;10.20;99.90
30764;DHT22;17497;51.476;7.770;2022-12-20T16:59:24;10.30;99.90
30764;DHT22;17497;51.476;7.770;2022-12-20T17:01:53;10.40;99.90
30764;DHT22;17497;51.476;7.770;2022-12-20T17:04:21;10.40;99.90
30764;DHT22;17497;51.476;7.770;2022-12-20T17:06:48;10.40;99.90
30764;DHT22;17497;51.476;7.770;2022-12-20T17:09:15;10.30;99.90
30764;DHT22;17497;51.476;7.770;2022-12-20T17:12:00;10.30;99.90
30764;DHT22;17497;51.476;7.770;2022-12-20T17:14:27;10.30;99.90
30764;DHT22;17497;51.476;7.770;2022-12-20T17:16:53;10.30;99.90
30764;DHT22;17497;51.476;7.770;2022-12-20T17:19:20;10.30;99.90
30764;DHT22;17497;51.476;7.770;2022-12-20T17:21:48;10.40;99.90
30764;DHT22;17497;51.476;7.770;2022-12-20T17:24:33;10.30;99.90
30764;DHT22;17497;51.476;7.770;2022-12-20T17:26:59;10.40;99.90
30764;DHT22;17497;51.476;7.770;2022-12-20T17:29:26;10.30;99.90
30764;DHT22;17497;51.476;7.770;2022-12-20T17:31:53;10.40;99.90
30764;DHT22;17497;51.476;7.770;2022-12-20T17:34:25;10.30;99.90
30764;DHT22;17497;51.476;7.770;2022-12-20T17:36:54;10.30;99.90
30764;DHT22;17497;51.476;7.770;2022-12-20T17:39:22;10.30;99.90
30764;DHT22;17497;51.476;7.770;2022-12-20T17:41:49;10.30;99.90
30764;DHT22;17497;51.476;7.770;2022-12-20T17:44:24;10.30;99.90
30764;DHT22;17497;51.476;7.770;2022-12-20T17:46:52;10.40;99.90
30764;DHT22;17497;51.476;7.770;2022-12-20T17:49:19;10.30;99.90
30764;DHT22;17497;51.476;7.770;2022-12-20T17:51:46;10.30;99.90
30764;DHT22;17497;51.476;7.770;2022-12-20T17:54:26;10.20;99.90
30764;DHT22;17497;51.476;7.770;2022-12-20T17:57:02;10.20;99.90
30764;DHT22;17497;51.476;7.770;2022-12-20T17:59:29;10.20;99.90
30764;DHT22;17497;51.476;7.770;2022-12-20T18:01:56;10.10;99.90
30764;DHT22;17497;51.476;7.770;2022-12-20T18:04:23;10.10;99.90
30764;DHT22;17497;51.476;7.770;2022-12-20T18:06:50;10.10;99.90